Hauptseite
METAR-TAF:

METAR-TAF

Flughäfen :

Flugplatz Shoreham

Brighton, England

Breite: 50-50N, Länge: 000-17W, Höhe: 2 m

Beobachtung

Neuester Wetterbericht von vor 18 Minuten, um 15:50 UTC
Wind 5 kt aus Südost
Temperatur 13°C
Luftfeuchtigkeit 82%
Luftdruck 1021 hPa
Sichtweite 10 km oder mehr
keine Wolken unter 1500 m und keine Kumulonimbus oder Gewitterwolken

METAR: EGKA 141550Z 13005KT CAVOK 13/10 Q1021

Zeit: 16:08 (16:08 UTC)

Prognose

Neuester Wetterbericht von vor 2 Stunden und 5 Minuten, um 14:03 UTC
Gültige Prognose vom 14 um 15 UTC bis 14 um 19 UTC
Wind 14 kt aus Süd
Sichtweite 10 km oder mehr
Leicht bewölkt in der Höhe von 2000 ft
Zeitweise
vom 14 um 18 UTC bis 14 um 19 UTC
Sichtweite: 6000 m
Durchbrochene Bewölkung in der Höhe von 700 ft

TAF: EGKA 141403Z 1415/1419 18014KT 9999 FEW020 TEMPO 1418/1419 6000 BKN007

Wetterbeobachtungen und Prognosen von mehr als 4000 Flughäfen (METAR und TAF Bericht).

Die verfügbaren Stationen werden durch gelbe und rote Markierungen auf der Karte dargestellt.

Führen Sie die Maus auf sie, um den Namen der Station zu sehen.

Darauf klicken, um die Beobachtung von Wetterbeobachtungen und Prognosen zu sehen.

Um die Karte zu ändern : klicken Sie auf den grünen Tasten mit einem schwarzen Kreuz Zum Vergrößern, auf den grünen Button mit einem Gedankenstrich zu verkleinern, oder auf die grünen Pfeile für benachbarte Karten.


METAR-TAF: